Time;durP1;ratioP1;P1;durP2;ratioP2;P2;SDS_P1;SDS_P2;PMS_P1;PMS_P2;Temp;Humidity;BMP_temperature;BMP_pressure;BME280_temperature;BME280_humidity;BME280_pressure;Samples;Min_cycle;Max_cycle;Signal;HPM_P1;HPM_P2
2022/06/01 00:00:08;;;;;;;7.10;2.72;;;19.30;70.00;;;;;;4981921;28;20022;-62
2022/06/01 00:02:34;;;;;;;5.15;3.03;;;19.30;70.30;;;;;;4985137;28;20018;-62
2022/06/01 00:05:00;;;;;;;5.85;2.58;;;19.40;70.00;;;;;;4982231;28;20014;-59
2022/06/01 00:07:26;;;;;;;4.70;2.80;;;19.50;70.00;;;;;;4984261;28;20370;-61
2022/06/01 00:09:55;;;;;;;6.30;3.20;;;19.40;69.90;;;;;;4982776;28;20022;-61
2022/06/01 00:12:24;;;;;;;8.02;2.90;;;19.30;70.30;;;;;;4979295;28;20035;-61
2022/06/01 00:14:52;;;;;;;5.28;2.80;;;19.40;70.50;;;;;;4980852;28;20027;-61
2022/06/01 00:17:20;;;;;;;4.88;2.92;;;19.30;70.60;;;;;;4982791;28;20447;-61
2022/06/01 00:19:47;;;;;;;7.03;2.90;;;19.30;70.90;;;;;;4983837;28;20014;-61
2022/06/01 00:22:17;;;;;;;7.32;3.25;;;19.10;70.90;;;;;;4982620;28;20368;-61
2022/06/01 00:24:46;;;;;;;6.80;2.78;;;19.10;71.20;;;;;;4982652;28;20023;-61
2022/06/01 00:27:13;;;;;;;6.18;2.95;;;19.20;71.00;;;;;;4982441;28;20031;-61
2022/06/01 00:29:44;;;;;;;6.53;3.63;;;19.30;70.80;;;;;;4983244;28;20056;-61
2022/06/01 00:32:14;;;;;;;6.03;3.17;;;19.30;70.70;;;;;;4986235;28;20027;-61
2022/06/01 00:34:49;;;;;;;6.05;3.30;;;19.40;70.80;;;;;;4989114;28;20022;-62
2022/06/01 00:37:16;;;;;;;4.80;2.78;;;19.40;70.90;;;;;;5005926;28;20029;-61
2022/06/01 00:39:44;;;;;;;5.25;2.78;;;19.40;70.90;;;;;;4992016;28;20026;-61
2022/06/01 00:42:15;;;;;;;6.72;3.13;;;19.40;70.60;;;;;;4991209;28;20157;-61
2022/06/01 00:44:41;;;;;;;5.03;3.17;;;19.40;70.70;;;;;;4987349;28;20371;-61
2022/06/01 00:47:08;;;;;;;3.97;2.88;;;19.40;70.80;;;;;;4986513;28;20014;-61
2022/06/01 00:49:37;;;;;;;4.00;2.40;;;19.40;71.00;;;;;;4997195;28;20053;-62
2022/06/01 00:52:04;;;;;;;5.57;2.70;;;19.30;70.90;;;;;;5013075;28;20071;-60
2022/06/01 00:54:30;;;;;;;5.82;2.80;;;19.30;70.80;;;;;;5013391;28;20026;-62
2022/06/01 00:57:05;;;;;;;7.05;2.97;;;19.30;70.60;;;;;;5014670;28;20021;-61
2022/06/01 00:59:35;;;;;;;4.45;2.60;;;19.50;70.40;;;;;;5013323;28;20025;-61
2022/06/01 01:02:04;;;;;;;5.88;2.65;;;19.50;70.10;;;;;;5000791;28;20092;-60
2022/06/01 01:04:35;;;;;;;4.20;2.70;;;19.60;69.90;;;;;;4994887;28;20083;-61
2022/06/01 01:07:06;;;;;;;3.47;2.35;;;19.50;69.80;;;;;;5013555;28;20056;-61
2022/06/01 01:09:34;;;;;;;3.58;2.35;;;19.50;70.00;;;;;;5013388;28;20028;-60
2022/06/01 01:12:08;;;;;;;4.65;2.42;;;19.50;69.80;;;;;;5013061;28;20014;-61
2022/06/01 01:14:41;;;;;;;6.70;2.25;;;19.50;69.80;;;;;;5014044;28;20022;-60
2022/06/01 01:17:08;;;;;;;3.15;2.38;;;19.50;69.70;;;;;;5013674;28;20413;-61
2022/06/01 01:19:46;;;;;;;4.60;2.33;;;19.30;69.60;;;;;;5013832;28;20144;-61
2022/06/01 01:22:36;;;;;;;4.90;2.33;;;19.30;69.90;;;;;;5013498;28;20018;-60
2022/06/01 01:25:33;;;;;;;3.60;2.10;;;19.10;70.00;;;;;;5013146;28;20033;-61
2022/06/01 01:28:03;;;;;;;3.80;2.17;;;19.10;70.50;;;;;;5000994;28;20113;-61
2022/06/01 01:30:38;;;;;;;5.90;2.45;;;19.10;70.20;;;;;;5014351;28;20026;-61
2022/06/01 01:33:08;;;;;;;4.28;2.38;;;19.20;70.10;;;;;;4984607;28;20027;-61
2022/06/01 01:35:36;;;;;;;4.03;2.20;;;19.20;70.00;;;;;;5012741;28;20071;-62
2022/06/01 01:38:07;;;;;;;4.03;2.30;;;19.10;69.70;;;;;;5013035;28;20049;-60
2022/06/01 01:40:34;;;;;;;4.45;2.13;;;19.00;70.40;;;;;;5001452;28;20053;-61
2022/06/01 01:43:01;;;;;;;4.28;2.30;;;19.00;70.30;;;;;;5014015;28;20041;-62
2022/06/01 01:45:31;;;;;;;4.70;2.58;;;19.10;70.10;;;;;;4980830;28;20077;-60
2022/06/01 01:47:57;;;;;;;5.72;2.40;;;19.20;70.00;;;;;;5008409;28;20025;-62
2022/06/01 01:50:24;;;;;;;6.55;2.55;;;19.20;70.00;;;;;;5000756;28;20099;-61
2022/06/01 01:52:50;;;;;;;8.65;2.30;;;19.20;70.00;;;;;;5014131;28;20026;-61
2022/06/01 01:55:27;;;;;;;5.95;2.53;;;19.20;70.00;;;;;;5013534;28;20057;-60
2022/06/01 01:57:59;;;;;;;3.88;2.10;;;19.30;70.00;;;;;;4996214;28;20053;-61
2022/06/01 02:00:27;;;;;;;3.67;2.15;;;19.30;69.50;;;;;;5005619;28;20030;-61
2022/06/01 02:03:11;;;;;;;3.92;2.55;;;19.30;69.40;;;;;;5012943;28;20061;-61
2022/06/01 02:06:04;;;;;;;;;;;19.30;69.90;;;;;;5014073;28;20057;-61
2022/06/01 02:08:32;;;;;;;3.35;2.20;;;19.20;69.90;;;;;;5007114;28;19909;-61
2022/06/01 02:14:12;;;;;;;3.95;2.08;;;19.10;69.80;;;;;;5012668;28;20546;-62
2022/06/01 02:16:40;;;;;;;;;;;19.10;70.10;;;;;;4996349;28;20022;-61
2022/06/01 02:19:12;;;;;;;4.63;2.28;;;18.90;70.10;;;;;;5012685;28;19902;-60
2022/06/01 02:21:38;;;;;;;4.97;2.38;;;18.90;70.20;;;;;;5013433;28;20037;-61
2022/06/01 02:24:04;;;;;;;5.15;2.35;;;18.80;70.40;;;;;;5013086;28;20036;-60
2022/06/01 02:26:30;;;;;;;3.13;2.30;;;18.90;70.90;;;;;;4995081;28;20041;-61
2022/06/01 02:29:06;;;;;;;4.82;2.70;;;18.70;70.90;;;;;;5012902;28;20021;-61
2022/06/01 02:31:33;;;;;;;4.43;2.70;;;18.60;71.40;;;;;;5011567;28;20025;-61
2022/06/01 02:34:01;;;;;;;3.03;2.25;;;18.60;71.70;;;;;;5013268;28;20068;-61
2022/06/01 02:36:28;;;;;;;5.47;2.70;;;18.60;71.50;;;;;;4994027;28;20064;-61
2022/06/01 02:38:57;;;;;;;7.43;2.80;;;18.60;71.70;;;;;;4992109;28;20455;-61
2022/06/01 02:44:06;;;;;;;;;;;18.60;72.10;;;;;;5012693;28;20430;-61
2022/06/01 02:46:32;;;;;;;4.68;2.97;;;18.40;72.40;;;;;;5010934;28;19901;-61
2022/06/01 02:49:00;;;;;;;5.00;2.78;;;18.40;72.30;;;;;;5012118;28;20014;-61
2022/06/01 02:51:26;;;;;;;3.88;2.70;;;18.30;72.80;;;;;;5012385;28;20021;-61
2022/06/01 02:53:52;;;;;;;6.10;2.35;;;18.30;72.90;;;;;;5011581;28;20122;-62
2022/06/01 02:56:18;;;;;;;5.57;2.53;;;18.40;72.60;;;;;;5012319;28;20022;-60
2022/06/01 02:58:44;;;;;;;4.00;2.58;;;18.40;72.80;;;;;;5012390;28;20079;-61
2022/06/01 03:01:09;;;;;;;4.43;2.72;;;18.50;72.40;;;;;;4994393;28;20068;-61
2022/06/01 03:03:36;;;;;;;4.47;2.80;;;18.40;72.30;;;;;;5004877;28;20022;-64
2022/06/01 03:06:02;;;;;;;4.68;2.70;;;18.40;72.30;;;;;;5011246;28;20021;-60
2022/06/01 03:08:28;;;;;;;3.05;2.40;;;18.50;72.10;;;;;;5012606;28;20017;-60
2022/06/01 03:10:54;;;;;;;4.35;2.50;;;18.50;72.20;;;;;;5011216;28;20400;-61
2022/06/01 03:13:22;;;;;;;3.85;2.42;;;18.50;72.20;;;;;;5011395;28;20025;-61
2022/06/01 03:15:50;;;;;;;4.38;2.42;;;18.40;72.10;;;;;;5011759;28;20179;-61
2022/06/01 03:18:15;;;;;;;5.55;2.60;;;18.40;72.20;;;;;;5012093;28;20045;-61
2022/06/01 03:20:42;;;;;;;3.40;2.30;;;18.30;72.40;;;;;;5009061;28;20099;-61
2022/06/01 03:23:08;;;;;;;3.83;2.50;;;18.30;72.40;;;;;;5011823;28;20061;-61
2022/06/01 03:25:36;;;;;;;5.07;2.22;;;18.30;72.40;;;;;;5010949;28;20591;-60
2022/06/01 03:28:05;;;;;;;6.45;2.58;;;18.40;72.30;;;;;;5011053;28;20022;-61
2022/06/01 03:30:32;;;;;;;3.78;2.42;;;18.30;72.20;;;;;;5011843;28;20176;-61
2022/06/01 03:32:58;;;;;;;5.88;2.42;;;18.40;72.20;;;;;;5012375;28;20103;-62
2022/06/01 03:35:30;;;;;;;3.65;2.38;;;18.50;72.10;;;;;;5011603;28;20054;-61
2022/06/01 03:37:57;;;;;;;4.50;2.58;;;18.50;71.90;;;;;;5010823;28;20018;-62
2022/06/01 03:40:24;;;;;;;6.80;2.88;;;18.50;72.20;;;;;;5009579;28;20137;-60
2022/06/01 03:42:50;;;;;;;4.25;3.03;;;18.60;71.40;;;;;;5011075;28;20165;-61
2022/06/01 03:48:01;;;;;;;6.53;2.88;;;18.50;71.40;;;;;;5011984;28;20085;-62
2022/06/01 03:50:28;;;;;;;4.35;2.60;;;18.50;71.50;;;;;;5000361;28;20050;-60
2022/06/01 03:52:54;;;;;;;4.38;2.53;;;18.50;71.80;;;;;;4991682;28;20109;-60
2022/06/01 03:55:20;;;;;;;3.90;2.95;;;18.50;71.60;;;;;;5011121;28;20105;-60
2022/06/01 03:57:46;;;;;;;4.70;2.67;;;18.50;71.70;;;;;;5011368;28;20104;-60
2022/06/01 04:00:15;;;;;;;4.30;2.63;;;18.60;71.60;;;;;;5008852;28;20498;-64
2022/06/01 04:02:42;;;;;;;4.40;2.20;;;18.70;71.60;;;;;;5010577;28;20485;-60
2022/06/01 04:05:16;;;;;;;3.97;2.40;;;18.70;71.10;;;;;;5011392;28;20462;-59
2022/06/01 04:07:42;;;;;;;3.90;2.30;;;18.80;70.80;;;;;;4993120;28;20076;-61
2022/06/01 04:10:08;;;;;;;3.50;2.38;;;18.90;70.80;;;;;;5011125;28;20370;-60
2022/06/01 04:12:35;;;;;;;4.18;2.20;;;18.90;70.70;;;;;;5010146;28;20053;-60
2022/06/01 04:15:01;;;;;;;4.82;2.20;;;19.00;70.30;;;;;;5010285;28;20022;-60
2022/06/01 04:17:27;;;;;;;3.90;2.08;;;19.00;69.90;;;;;;5008857;28;20026;-60
2022/06/01 04:19:52;;;;;;;2.78;2.22;;;19.00;69.60;;;;;;5004896;28;20025;-60
2022/06/01 04:22:19;;;;;;;3.67;2.03;;;19.10;69.50;;;;;;4990349;28;20022;-61
2022/06/01 04:24:45;;;;;;;3.22;1.95;;;19.20;69.10;;;;;;5006885;28;20148;-61
2022/06/01 04:27:11;;;;;;;4.05;2.45;;;19.20;68.70;;;;;;4994251;28;20102;-60
2022/06/01 04:29:36;;;;;;;3.13;1.98;;;19.10;68.70;;;;;;4994021;28;20350;-61
2022/06/01 04:32:17;;;;;;;5.88;2.38;;;19.20;68.70;;;;;;4997115;28;20033;-60
2022/06/01 04:34:42;;;;;;;2.40;2.00;;;19.20;68.60;;;;;;5015293;28;20029;-61
2022/06/01 04:37:08;;;;;;;3.67;2.22;;;19.20;68.40;;;;;;4993782;28;20089;-60
2022/06/01 04:39:34;;;;;;;3.60;2.30;;;19.20;68.70;;;;;;5012650;28;20034;-61
2022/06/01 04:41:59;;;;;;;5.72;2.63;;;19.20;68.90;;;;;;5010514;28;20030;-60
2022/06/01 04:44:26;;;;;;;5.22;2.58;;;19.20;68.90;;;;;;5013216;28;20454;-60
2022/06/01 04:46:51;;;;;;;6.70;2.30;;;19.30;68.80;;;;;;5011513;28;20042;-60
2022/06/01 04:49:18;;;;;;;6.40;2.15;;;19.30;68.50;;;;;;5005347;28;20084;-60
2022/06/01 04:51:44;;;;;;;5.50;3.17;;;19.40;68.10;;;;;;5006881;28;20022;-61
2022/06/01 04:54:09;;;;;;;2.67;2.08;;;19.40;68.30;;;;;;5014723;28;20033;-59
2022/06/01 04:56:35;;;;;;;5.55;2.20;;;19.40;68.00;;;;;;4985808;28;20022;-61
2022/06/01 04:59:02;;;;;;;4.97;2.17;;;19.50;67.60;;;;;;5013583;28;20022;-61
2022/06/01 05:01:28;;;;;;;8.00;2.10;;;19.60;67.30;;;;;;5013354;28;20022;-60
2022/06/01 05:03:54;;;;;;;5.47;1.98;;;19.70;66.80;;;;;;5014728;28;20030;-62
2022/06/01 05:06:20;;;;;;;3.30;1.67;;;19.70;66.50;;;;;;5014548;28;20084;-61
2022/06/01 05:08:46;;;;;;;3.15;1.90;;;19.80;65.90;;;;;;5008267;28;20362;-61
2022/06/01 05:11:11;;;;;;;3.03;1.40;;;19.80;64.90;;;;;;5012783;28;20092;-61
2022/06/01 05:13:37;;;;;;;5.65;1.60;;;19.80;65.00;;;;;;4995094;28;20049;-61
2022/06/01 05:16:03;;;;;;;3.00;1.17;;;19.90;63.80;;;;;;5004431;28;20100;-61
2022/06/01 05:18:30;;;;;;;2.65;1.48;;;19.90;63.40;;;;;;5005737;28;20447;-62
2022/06/01 05:20:56;;;;;;;3.08;1.25;;;20.00;63.40;;;;;;5004886;28;20037;-62
2022/06/01 05:23:23;;;;;;;2.63;1.38;;;20.00;62.90;;;;;;5001313;28;20417;-60
2022/06/01 05:25:51;;;;;;;4.82;1.60;;;20.10;62.40;;;;;;4989182;28;20029;-60
2022/06/01 05:28:20;;;;;;;2.38;1.50;;;20.10;63.30;;;;;;4995776;28;20076;-61
2022/06/01 05:30:45;;;;;;;4.65;1.42;;;20.10;61.90;;;;;;5001403;28;20105;-61
2022/06/01 05:33:11;;;;;;;7.30;2.03;;;20.10;62.20;;;;;;4992043;28;20415;-63
2022/06/01 05:35:37;;;;;;;4.22;1.48;;;20.20;62.40;;;;;;4992230;28;20041;-61
2022/06/01 05:38:06;;;;;;;5.63;1.40;;;20.10;62.30;;;;;;5005555;28;20076;-62
2022/06/01 05:40:33;;;;;;;3.17;1.35;;;20.10;61.90;;;;;;4998751;28;20022;-61
2022/06/01 05:42:59;;;;;;;4.82;1.48;;;20.20;62.10;;;;;;4997194;28;20026;-62
2022/06/01 05:45:30;;;;;;;2.10;1.27;;;20.30;61.80;;;;;;5003749;28;20036;-61
2022/06/01 05:47:55;;;;;;;5.05;1.23;;;20.20;61.20;;;;;;5004782;28;20018;-61
2022/06/01 05:50:21;;;;;;;7.20;1.70;;;20.30;61.50;;;;;;5008345;28;20370;-60
2022/06/01 05:52:47;;;;;;;2.95;1.35;;;20.40;61.00;;;;;;5011398;28;20409;-61
2022/06/01 05:55:13;;;;;;;2.28;1.40;;;20.40;60.50;;;;;;4992140;28;20478;-62
2022/06/01 05:57:39;;;;;;;3.15;1.67;;;20.50;60.70;;;;;;5009041;28;20466;-61
2022/06/01 06:00:07;;;;;;;3.17;1.42;;;20.60;60.40;;;;;;4994596;28;20068;-61
2022/06/01 06:02:33;;;;;;;4.88;1.30;;;20.70;60.30;;;;;;5004709;28;20427;-61
2022/06/01 06:04:59;;;;;;;2.38;1.40;;;20.70;59.70;;;;;;5013573;28;20072;-62
2022/06/01 06:07:24;;;;;;;4.75;1.50;;;20.70;60.00;;;;;;5001859;28;20019;-63
2022/06/01 06:09:50;;;;;;;4.63;1.55;;;20.60;59.80;;;;;;4997077;28;20453;-62
2022/06/01 06:12:17;;;;;;;8.10;1.70;;;20.70;59.90;;;;;;5008586;28;20500;-61
2022/06/01 06:14:43;;;;;;;7.20;1.58;;;20.80;59.70;;;;;;4998232;28;20033;-61
2022/06/01 06:17:09;;;;;;;5.85;1.48;;;20.90;59.10;;;;;;5009406;28;20025;-61
2022/06/01 06:19:38;;;;;;;7.72;1.60;;;20.80;59.30;;;;;;5004954;28;20026;-61
2022/06/01 06:22:06;;;;;;;4.95;1.50;;;20.80;58.90;;;;;;5007642;28;20029;-61
2022/06/01 06:24:33;;;;;;;12.23;1.70;;;20.90;59.10;;;;;;5009521;28;20433;-61
2022/06/01 06:27:00;;;;;;;5.38;1.80;;;21.00;59.00;;;;;;5011675;28;20055;-61
2022/06/01 06:29:25;;;;;;;4.57;2.92;;;21.10;58.50;;;;;;5003382;28;20022;-60
2022/06/01 06:31:51;;;;;;;11.65;3.50;;;21.20;58.50;;;;;;5005391;28;20080;-60
2022/06/01 06:34:17;;;;;;;12.98;2.95;;;21.20;58.50;;;;;;4991974;28;20454;-60
2022/06/01 06:36:45;;;;;;;6.93;2.83;;;21.30;58.40;;;;;;5002387;28;20021;-61
2022/06/01 06:39:11;;;;;;;3.05;1.70;;;21.40;57.70;;;;;;5006437;28;20029;-61
2022/06/01 06:41:37;;;;;;;3.78;1.95;;;21.40;57.80;;;;;;4999813;28;20049;-61
2022/06/01 06:44:03;;;;;;;8.75;2.05;;;21.40;57.60;;;;;;5007532;28;20096;-61
2022/06/01 06:46:29;;;;;;;4.90;2.35;;;21.60;57.40;;;;;;5006757;28;20029;-61
2022/06/01 06:48:55;;;;;;;3.78;2.65;;;22.20;56.30;;;;;;5003424;28;20366;-61
2022/06/01 06:51:22;;;;;;;3.38;2.40;;;24.40;54.80;;;;;;5011307;28;20018;-62
2022/06/01 06:53:48;;;;;;;5.90;2.10;;;28.10;44.90;;;;;;4999449;28;20018;-62
2022/06/01 06:56:15;;;;;;;3.58;2.40;;;31.30;38.90;;;;;;5010762;28;20049;-61
2022/06/01 06:58:42;;;;;;;4.55;2.30;;;33.80;35.70;;;;;;5009586;28;20122;-62
2022/06/01 07:01:07;;;;;;;4.35;2.40;;;35.40;32.00;;;;;;5005148;28;20036;-61
2022/06/01 07:03:33;;;;;;;4.78;2.47;;;35.80;31.20;;;;;;5010569;28;20026;-62
2022/06/01 07:06:10;;;;;;;6.18;2.15;;;36.60;30.90;;;;;;5011006;28;20033;-61
2022/06/01 07:08:37;;;;;;;5.82;2.50;;;37.70;29.60;;;;;;5007804;28;20315;-61
2022/06/01 07:11:03;;;;;;;3.20;2.25;;;39.00;28.50;;;;;;5010558;28;20018;-61
2022/06/01 07:13:30;;;;;;;6.05;2.60;;;39.50;27.80;;;;;;5009901;28;20033;-61
2022/06/01 07:16:06;;;;;;;7.95;2.50;;;39.20;27.80;;;;;;5011185;28;20022;-61
2022/06/01 07:18:32;;;;;;;8.07;2.38;;;39.10;27.70;;;;;;5008377;28;20018;-61
2022/06/01 07:20:58;;;;;;;6.47;2.40;;;39.50;27.70;;;;;;5011403;28;20029;-62
2022/06/01 07:23:25;;;;;;;5.38;2.10;;;40.10;27.50;;;;;;5011647;28;20070;-61
2022/06/01 07:25:52;;;;;;;4.75;2.40;;;42.00;26.60;;;;;;5009770;28;20107;-61
2022/06/01 07:28:21;;;;;;;4.40;2.42;;;42.90;25.90;;;;;;4992045;28;20026;-60
2022/06/01 07:30:49;;;;;;;8.10;2.40;;;44.10;25.50;;;;;;4992974;28;20045;-61
2022/06/01 07:33:15;;;;;;;5.43;2.00;;;45.10;24.70;;;;;;5007682;28;20029;-61
2022/06/01 07:35:41;;;;;;;3.95;2.08;;;45.00;24.30;;;;;;4993582;28;20223;-61
2022/06/01 07:43:38;;;;;;;3.08;1.95;;;44.10;24.50;;;;;;5008915;28;20048;-61
2022/06/01 07:46:04;;;;;;;5.97;2.00;;;44.70;24.20;;;;;;5009867;28;20041;-62
2022/06/01 07:48:30;;;;;;;3.72;2.17;;;44.90;23.70;;;;;;5010936;28;20022;-61
2022/06/01 07:50:57;;;;;;;3.17;2.83;;;44.00;24.00;;;;;;5011530;28;20486;-61
2022/06/01 07:53:22;;;;;;;6.22;2.38;;;42.90;24.70;;;;;;4993366;28;20109;-61
2022/06/01 07:55:48;;;;;;;4.32;2.30;;;43.30;24.80;;;;;;4994251;28;20129;-60
2022/06/01 07:58:14;;;;;;;5.22;2.50;;;45.40;24.10;;;;;;5010277;28;20018;-61
2022/06/01 08:00:39;;;;;;;2.80;2.25;;;47.60;23.10;;;;;;5012513;28;20034;-62
2022/06/01 08:03:10;;;;;;;7.18;2.47;;;48.90;22.80;;;;;;5015568;28;20037;-64
2022/06/01 08:05:36;;;;;;;4.57;2.67;;;49.90;22.20;;;;;;5015065;28;20032;-63
2022/06/01 08:08:02;;;;;;;5.55;2.80;;;50.20;21.70;;;;;;5015660;28;20028;-63
2022/06/01 08:10:28;;;;;;;4.75;2.78;;;49.40;21.70;;;;;;5014877;28;20417;-62
2022/06/01 08:13:06;;;;;;;4.60;2.58;;;48.40;22.00;;;;;;5015154;28;20463;-63
2022/06/01 08:15:33;;;;;;;3.38;2.30;;;48.00;22.30;;;;;;5011294;28;20026;-63
2022/06/01 08:17:59;;;;;;;3.78;2.60;;;48.30;22.00;;;;;;5015200;28;20029;-62
2022/06/01 08:20:26;;;;;;;5.72;2.60;;;48.70;22.10;;;;;;4997030;28;20418;-63
2022/06/01 08:22:53;;;;;;;7.05;2.58;;;50.30;21.70;;;;;;5015536;28;20028;-63
2022/06/01 08:25:21;;;;;;;8.77;3.58;;;51.90;21.30;;;;;;5015038;28;20121;-63
2022/06/01 08:27:48;;;;;;;3.67;2.35;;;52.50;21.10;;;;;;4997945;28;20056;-64
2022/06/01 08:30:16;;;;;;;3.53;2.53;;;52.30;20.70;;;;;;5014735;28;20519;-62
2022/06/01 08:32:42;;;;;;;3.33;2.83;;;51.40;20.80;;;;;;5014870;28;20498;-62
2022/06/01 08:35:10;;;;;;;6.07;3.13;;;50.20;21.00;;;;;;4997428;28;20030;-64
2022/06/01 08:37:37;;;;;;;4.57;2.80;;;50.40;21.30;;;;;;5014593;28;20025;-63
2022/06/01 08:40:05;;;;;;;5.63;3.00;;;51.00;20.70;;;;;;5010250;28;20464;-63
2022/06/01 08:42:32;;;;;;;6.32;2.95;;;50.70;20.90;;;;;;5008038;28;20054;-62
2022/06/01 08:45:04;;;;;;;5.70;3.00;;;50.60;20.80;;;;;;5014033;28;20033;-63
2022/06/01 08:47:38;;;;;;;;;;;50.00;20.70;;;;;;4995197;28;20097;-61
2022/06/01 08:50:36;;;;;;;4.15;3.22;;;49.80;21.20;;;;;;5014355;28;19918;-62
2022/06/01 08:53:06;;;;;;;8.00;3.10;;;50.40;21.20;;;;;;4995986;28;20041;-63
2022/06/01 08:56:09;;;;;;;3.38;2.97;;;50.60;20.90;;;;;;4996101;28;20025;-62
2022/06/01 08:59:00;;;;;;;7.15;3.00;;;50.60;20.90;;;;;;5012758;28;20116;-63
2022/06/01 09:01:37;;;;;;;5.70;2.97;;;50.20;21.00;;;;;;4992163;28;20094;-63
2022/06/01 09:04:07;;;;;;;5.95;2.60;;;49.50;20.80;;;;;;5013811;28;20029;-62
2022/06/01 09:06:38;;;;;;;11.40;3.80;;;48.80;21.10;;;;;;5013444;28;20033;-63
2022/06/01 09:09:17;;;;;;;4.50;2.40;;;48.20;21.30;;;;;;5014055;28;20037;-63
2022/06/01 09:11:45;;;;;;;5.40;2.20;;;47.80;21.40;;;;;;5012852;28;20026;-62
2022/06/01 09:14:18;;;;;;;6.72;1.90;;;48.20;21.30;;;;;;4996249;28;20030;-63
2022/06/01 09:16:46;;;;;;;;;;;47.50;21.40;;;;;;4995304;28;20034;-63
2022/06/01 09:19:22;;;;;;;6.30;1.98;;;45.80;21.70;;;;;;5007339;28;19979;-63
2022/06/01 09:24:48;;;;;;;18.45;1.75;;;38.70;25.00;;;;;;5005763;28;20170;-63
2022/06/01 09:27:15;;;;;;;5.32;1.30;;;35.60;27.20;;;;;;5001151;28;20026;-63
2022/06/01 09:29:50;;;;;;;5.93;1.73;;;34.10;28.50;;;;;;5013117;28;20428;-62
2022/06/01 09:32:31;;;;;;;5.32;1.63;;;32.90;29.90;;;;;;5010267;28;20033;-63
2022/06/01 09:35:09;;;;;;;10.07;1.98;;;31.90;31.50;;;;;;5011848;28;20045;-64
2022/06/01 09:37:46;;;;;;;7.43;1.95;;;30.90;32.80;;;;;;4998332;28;20078;-62
2022/06/01 09:40:33;;;;;;;8.15;1.60;;;30.30;33.50;;;;;;4992755;28;20108;-63
2022/06/01 09:43:01;;;;;;;7.78;2.10;;;29.70;34.20;;;;;;4995841;28;20021;-62
2022/06/01 09:45:47;;;;;;;10.93;1.60;;;29.40;34.90;;;;;;4995674;28;20367;-63
2022/06/01 09:48:35;;;;;;;4.60;1.85;;;29.20;35.00;;;;;;5012980;28;20022;-62
2022/06/01 09:51:04;;;;;;;5.75;1.60;;;28.90;35.00;;;;;;4995182;28;20058;-64
2022/06/01 09:53:36;;;;;;;5.20;1.73;;;28.50;35.30;;;;;;5012983;28;20022;-64
2022/06/01 09:56:03;;;;;;;6.85;1.80;;;28.40;35.30;;;;;;5013237;28;20022;-63
2022/06/01 10:07:30;;;;;;;3.85;1.60;;;27.70;36.80;;;;;;5013215;28;20044;-62
2022/06/01 10:10:04;;;;;;;2.53;1.65;;;27.70;37.30;;;;;;4999227;28;20059;-62
2022/06/01 10:12:44;;;;;;;8.70;1.77;;;27.50;37.40;;;;;;5007285;28;20471;-62
2022/06/01 10:15:27;;;;;;;2.25;1.40;;;27.50;37.30;;;;;;4995766;28;20096;-63
2022/06/01 10:18:19;;;;;;;3.65;1.88;;;27.30;37.80;;;;;;4986814;28;20080;-63
2022/06/01 10:20:47;;;;;;;4.30;1.60;;;27.10;38.00;;;;;;4995471;28;20033;-63
2022/06/01 10:23:16;;;;;;;6.35;1.77;;;27.00;38.00;;;;;;5011946;28;20088;-64
2022/06/01 10:26:09;;;;;;;4.43;2.00;;;26.90;38.20;;;;;;4994088;28;20125;-63
2022/06/01 10:28:40;;;;;;;8.20;2.40;;;27.00;38.20;;;;;;5001388;28;20121;-62
2022/06/01 10:31:33;;;;;;;3.00;1.48;;;27.10;38.20;;;;;;5011779;28;20048;-63
2022/06/01 10:34:10;;;;;;;5.70;1.35;;;27.10;38.80;;;;;;5003687;28;20502;-64
2022/06/01 10:36:53;;;;;;;6.00;1.52;;;27.00;38.40;;;;;;5011930;28;20026;-61
2022/06/01 10:39:34;;;;;;;5.05;1.60;;;27.10;38.20;;;;;;5012284;28;20026;-63
2022/06/01 10:42:03;;;;;;;4.28;1.60;;;27.20;37.70;;;;;;4984536;28;20030;-64
2022/06/01 10:44:51;;;;;;;2.58;1.48;;;27.10;37.60;;;;;;5011614;28;20021;-63
2022/06/01 10:47:55;;;;;;;4.75;1.50;;;27.00;37.80;;;;;;4989130;28;20045;-63
2022/06/01 10:50:39;;;;;;;8.00;1.70;;;27.00;37.80;;;;;;4978519;28;20058;-63
2022/06/01 10:53:35;;;;;;;7.82;1.92;;;27.00;38.30;;;;;;5006115;28;20061;-63
2022/06/01 10:56:01;;;;;;;4.25;1.73;;;27.20;37.60;;;;;;5010578;28;20029;-63
2022/06/01 10:58:28;;;;;;;6.80;1.50;;;27.20;37.00;;;;;;5010665;28;20026;-62
2022/06/01 11:00:59;;;;;;;6.05;1.70;;;27.20;37.00;;;;;;4991400;28;20033;-63
2022/06/01 11:03:45;;;;;;;7.05;1.58;;;27.20;37.30;;;;;;4981598;28;20075;-61
2022/06/01 11:06:38;;;;;;;3.83;1.50;;;27.20;37.40;;;;;;5011681;28;20080;-64
2022/06/01 11:09:20;;;;;;;8.18;1.42;;;27.10;37.40;;;;;;5011677;28;20045;-62
2022/06/01 11:11:58;;;;;;;5.20;1.63;;;27.00;37.10;;;;;;5003651;28;20038;-63
2022/06/01 11:14:44;;;;;;;2.75;1.40;;;27.20;36.40;;;;;;5002533;28;20037;-64
2022/06/01 11:17:25;;;;;;;8.55;1.70;;;27.30;35.70;;;;;;5007575;28;20470;-63
2022/06/01 11:20:22;;;;;;;9.00;2.03;;;27.50;35.80;;;;;;5010843;28;20026;-63
2022/06/01 11:22:50;;;;;;;3.17;1.67;;;27.70;35.80;;;;;;5006500;28;20041;-64
2022/06/01 11:25:19;;;;;;;4.35;1.95;;;27.90;35.50;;;;;;5011072;28;20030;-62
2022/06/01 11:28:18;;;;;;;5.72;2.10;;;27.80;35.50;;;;;;4998562;28;20096;-65
2022/06/01 11:31:12;;;;;;;4.03;1.63;;;27.90;35.50;;;;;;4998401;28;20364;-62
2022/06/01 11:33:46;;;;;;;6.20;1.70;;;28.20;35.30;;;;;;4992935;28;20091;-62
2022/06/01 11:36:26;;;;;;;4.57;2.45;;;28.20;34.20;;;;;;4979758;28;20035;-62
2022/06/01 11:39:23;;;;;;;10.23;2.60;;;28.30;34.10;;;;;;4999811;28;20029;-62
2022/06/01 11:42:04;;;;;;;5.55;1.92;;;28.50;33.80;;;;;;5010303;28;20025;-61
2022/06/01 11:44:36;;;;;;;6.18;1.80;;;28.50;33.20;;;;;;5001099;28;20056;-62
2022/06/01 11:47:09;;;;;;;7.45;2.22;;;28.70;32.80;;;;;;5010292;28;20026;-61
2022/06/01 11:49:39;;;;;;;4.60;1.33;;;28.60;31.30;;;;;;5008958;28;20057;-61
2022/06/01 11:52:24;;;;;;;5.70;1.60;;;28.50;29.60;;;;;;5009287;28;20034;-62
2022/06/01 11:55:10;;;;;;;3.28;1.33;;;28.30;30.70;;;;;;4998921;28;20037;-62
2022/06/01 11:57:47;;;;;;;5.90;1.80;;;28.20;31.60;;;;;;4987661;28;20120;-61
2022/06/01 12:00:19;;;;;;;4.80;1.52;;;28.40;31.80;;;;;;4990620;28;20018;-61
2022/06/01 12:02:50;;;;;;;4.47;1.92;;;28.30;30.00;;;;;;4987881;28;20152;-62
2022/06/01 12:05:23;;;;;;;5.20;1.80;;;28.30;29.80;;;;;;5005300;28;20129;-62
2022/06/01 12:08:20;;;;;;;9.68;2.00;;;28.40;30.20;;;;;;5010594;28;20069;-62
2022/06/01 12:10:48;;;;;;;5.57;1.95;;;28.60;30.10;;;;;;5010166;28;20026;-62
2022/06/01 12:13:30;;;;;;;4.70;2.20;;;28.90;30.00;;;;;;5010613;28;20033;-62
2022/06/01 12:16:05;;;;;;;6.97;2.40;;;28.80;28.70;;;;;;5010177;28;20039;-62
2022/06/01 12:18:32;;;;;;;5.35;2.05;;;28.70;28.80;;;;;;5001646;28;20026;-62
2022/06/01 12:21:16;;;;;;;4.72;1.50;;;28.90;29.00;;;;;;4991680;28;20416;-61
2022/06/01 12:29:34;;;;;;;3.17;1.40;;;29.00;27.80;;;;;;5010436;28;20037;-63
2022/06/01 12:32:03;;;;;;;3.38;1.77;;;29.10;27.60;;;;;;5005448;28;20030;-62
2022/06/01 12:34:40;;;;;;;3.88;1.55;;;29.10;27.70;;;;;;5007245;28;20104;-63
2022/06/01 12:37:08;;;;;;;4.55;1.85;;;29.10;27.70;;;;;;5003660;28;20045;-63
2022/06/01 12:39:40;;;;;;;4.30;1.50;;;29.10;28.00;;;;;;5009288;28;20161;-61
2022/06/01 12:42:30;;;;;;;6.30;1.50;;;29.20;27.30;;;;;;5007947;28;20022;-62
2022/06/01 12:45:00;;;;;;;3.15;1.33;;;29.10;27.30;;;;;;4988659;28;20031;-63
2022/06/01 12:48:07;;;;;;;4.40;1.40;;;29.10;27.00;;;;;;5013293;28;20390;-62
2022/06/01 12:50:58;;;;;;;7.50;1.73;;;29.10;26.90;;;;;;4994289;28;20393;-63
2022/06/01 12:53:49;;;;;;;9.07;1.50;;;29.30;27.50;;;;;;5014259;28;20082;-62
2022/06/01 12:56:20;;;;;;;5.03;1.50;;;29.20;27.20;;;;;;4953018;29;20457;-62
2022/06/01 12:58:49;;;;;;;6.35;1.60;;;29.30;27.30;;;;;;4936643;29;20090;-60
2022/06/01 13:01:18;;;;;;;5.25;2.17;;;29.50;27.50;;;;;;4953184;29;20046;-59
2022/06/01 13:03:51;;;;;;;3.75;1.55;;;29.90;27.60;;;;;;4951445;29;20035;-62
2022/06/01 13:06:24;;;;;;;9.13;1.60;;;29.70;27.30;;;;;;4953267;29;20031;-62
2022/06/01 13:09:07;;;;;;;4.65;1.55;;;29.50;27.70;;;;;;4950915;29;20163;-62
2022/06/01 13:11:34;;;;;;;3.25;1.80;;;29.40;27.90;;;;;;4934162;29;20123;-60
2022/06/01 13:14:02;;;;;;;3.17;1.65;;;29.50;28.10;;;;;;4933657;29;20492;-63
2022/06/01 13:16:43;;;;;;;3.47;1.27;;;29.60;27.90;;;;;;4936816;29;20035;-63
2022/06/01 13:19:21;;;;;;;6.90;1.70;;;29.50;27.90;;;;;;4945386;29;20102;-63
2022/06/01 13:22:00;;;;;;;5.50;1.70;;;29.60;28.30;;;;;;4952740;29;20039;-62
2022/06/01 13:24:28;;;;;;;5.93;1.30;;;29.90;28.30;;;;;;4941210;29;20069;-63
2022/06/01 13:26:56;;;;;;;11.40;2.63;;;30.00;27.90;;;;;;4935943;29;20056;-60
2022/06/01 13:29:27;;;;;;;5.22;1.35;;;29.80;28.00;;;;;;4936781;29;20034;-63
2022/06/01 13:31:56;;;;;;;3.60;2.20;;;29.60;27.90;;;;;;4935755;29;20023;-64
2022/06/01 13:34:43;;;;;;;3.85;1.30;;;29.60;28.00;;;;;;5009358;28;20037;-62
2022/06/01 13:37:16;;;;;;;15.10;9.13;;;29.50;28.10;;;;;;5013643;28;20037;-62
2022/06/01 13:39:56;;;;;;;10.68;4.60;;;29.80;28.20;;;;;;5012075;28;20080;-63